sensor_id;sensor_type;location;lat;lon;timestamp;pressure;altitude;pressure_sealevel;temperature;humidity
51715;BME280;39115;59.332;18.034;2023-11-18T00:00:33;102095.91;;;0.60;60.94
51715;BME280;39115;59.332;18.034;2023-11-18T00:02:53;102097.63;;;0.61;60.92
51715;BME280;39115;59.332;18.034;2023-11-18T00:05:14;102093.28;;;0.60;60.64
51715;BME280;39115;59.332;18.034;2023-11-18T00:07:34;102089.78;;;0.59;60.66
51715;BME280;39115;59.332;18.034;2023-11-18T00:09:55;102092.41;;;0.59;61.19
51715;BME280;39115;59.332;18.034;2023-11-18T00:12:15;102097.63;;;0.59;60.69
51715;BME280;39115;59.332;18.034;2023-11-18T00:14:36;102092.41;;;0.59;61.28
51715;BME280;39115;59.332;18.034;2023-11-18T00:16:57;102092.44;;;0.58;61.08
51715;BME280;39115;59.332;18.034;2023-11-18T00:19:19;102093.28;;;0.58;61.30
51715;BME280;39115;59.332;18.034;2023-11-18T00:21:39;102095.91;;;0.58;60.89
51715;BME280;39115;59.332;18.034;2023-11-18T00:24:00;102094.22;;;0.57;61.11
51715;BME280;39115;59.332;18.034;2023-11-18T00:26:21;102091.59;;;0.57;61.01
51715;BME280;39115;59.332;18.034;2023-11-18T00:28:42;102097.69;;;0.58;61.07
51715;BME280;39115;59.332;18.034;2023-11-18T00:31:02;102092.50;;;0.56;60.71
51715;BME280;39115;59.332;18.034;2023-11-18T00:33:25;102095.13;;;0.56;60.98
51715;BME280;39115;59.332;18.034;2023-11-18T00:35:45;102096.00;;;0.55;60.75
51715;BME280;39115;59.332;18.034;2023-11-18T00:38:05;102107.34;;;0.56;60.94
51715;BME280;39115;59.332;18.034;2023-11-18T00:40:26;102100.38;;;0.55;60.88
51715;BME280;39115;59.332;18.034;2023-11-18T00:42:50;102104.75;;;0.54;60.90
51715;BME280;39115;59.332;18.034;2023-11-18T00:45:10;102108.28;;;0.53;61.11
51715;BME280;39115;59.332;18.034;2023-11-18T00:47:32;102106.53;;;0.54;60.69
51715;BME280;39115;59.332;18.034;2023-11-18T00:49:53;102104.81;;;0.53;60.96
51715;BME280;39115;59.332;18.034;2023-11-18T00:52:14;102106.53;;;0.54;60.97
51715;BME280;39115;59.332;18.034;2023-11-18T00:54:35;102106.56;;;0.52;60.77
51715;BME280;39115;59.332;18.034;2023-11-18T00:56:56;102105.69;;;0.52;61.04
51715;BME280;39115;59.332;18.034;2023-11-18T00:59:17;102102.19;;;0.51;61.03
51715;BME280;39115;59.332;18.034;2023-11-18T01:01:37;102102.19;;;0.51;60.87
51715;BME280;39115;59.332;18.034;2023-11-18T01:03:58;102104.81;;;0.51;61.19
51715;BME280;39115;59.332;18.034;2023-11-18T01:06:19;102106.59;;;0.51;61.13
51715;BME280;39115;59.332;18.034;2023-11-18T01:08:40;102102.19;;;0.51;60.94
51715;BME280;39115;59.332;18.034;2023-11-18T01:11:00;102105.69;;;0.52;60.92
51715;BME280;39115;59.332;18.034;2023-11-18T01:13:20;102103.97;;;0.51;60.72
51715;BME280;39115;59.332;18.034;2023-11-18T01:15:41;102105.75;;;0.50;61.17
51715;BME280;39115;59.332;18.034;2023-11-18T01:18:01;102103.13;;;0.49;60.69
51715;BME280;39115;59.332;18.034;2023-11-18T01:20:22;102106.63;;;0.49;60.80
51715;BME280;39115;59.332;18.034;2023-11-18T01:22:42;102114.50;;;0.49;60.95
51715;BME280;39115;59.332;18.034;2023-11-18T01:25:06;102119.75;;;0.49;60.93
51715;BME280;39115;59.332;18.034;2023-11-18T01:27:28;102117.13;;;0.49;60.88
51715;BME280;39115;59.332;18.034;2023-11-18T01:29:49;102111.00;;;0.49;61.11
51715;BME280;39115;59.332;18.034;2023-11-18T01:32:09;102110.16;;;0.48;61.01
51715;BME280;39115;59.332;18.034;2023-11-18T01:34:30;102107.59;;;0.46;60.84
51715;BME280;39115;59.332;18.034;2023-11-18T01:36:50;102108.44;;;0.47;60.80
51715;BME280;39115;59.332;18.034;2023-11-18T01:39:10;102104.97;;;0.46;60.83
51715;BME280;39115;59.332;18.034;2023-11-18T01:41:33;102099.72;;;0.46;61.19
51715;BME280;39115;59.332;18.034;2023-11-18T01:43:53;102098.78;;;0.47;60.51
51715;BME280;39115;59.332;18.034;2023-11-18T01:46:16;102090.97;;;0.46;60.86
51715;BME280;39115;59.332;18.034;2023-11-18T01:48:38;102096.22;;;0.46;61.03
51715;BME280;39115;59.332;18.034;2023-11-18T01:51:01;102104.03;;;0.47;60.69
51715;BME280;39115;59.332;18.034;2023-11-18T01:53:25;102097.94;;;0.47;60.82
51715;BME280;39115;59.332;18.034;2023-11-18T01:55:47;102093.59;;;0.46;60.75
51715;BME280;39115;59.332;18.034;2023-11-18T01:58:09;102092.75;;;0.45;61.04
51715;BME280;39115;59.332;18.034;2023-11-18T02:00:31;102096.22;;;0.46;60.85
51715;BME280;39115;59.332;18.034;2023-11-18T02:02:54;102091.88;;;0.45;61.16
51715;BME280;39115;59.332;18.034;2023-11-18T02:05:15;102092.75;;;0.45;60.91
51715;BME280;39115;59.332;18.034;2023-11-18T02:07:38;102090.97;;;0.46;60.94
51715;BME280;39115;59.332;18.034;2023-11-18T02:09:59;102083.13;;;0.46;61.17
51715;BME280;39115;59.332;18.034;2023-11-18T02:14:50;102090.97;;;0.46;60.94
51715;BME280;39115;59.332;18.034;2023-11-18T02:17:13;102083.13;;;0.46;60.94
51715;BME280;39115;59.332;18.034;2023-11-18T02:19:35;102086.63;;;0.46;60.72
51715;BME280;39115;59.332;18.034;2023-11-18T02:21:56;102086.63;;;0.46;61.06
51715;BME280;39115;59.332;18.034;2023-11-18T02:24:28;102080.50;;;0.46;60.86
51715;BME280;39115;59.332;18.034;2023-11-18T02:26:50;102086.63;;;0.45;61.09
51715;BME280;39115;59.332;18.034;2023-11-18T02:29:11;102075.25;;;0.46;60.68
51715;BME280;39115;59.332;18.034;2023-11-18T02:31:34;102086.63;;;0.46;61.04
51715;BME280;39115;59.332;18.034;2023-11-18T02:34:05;102076.13;;;0.46;60.65
51715;BME280;39115;59.332;18.034;2023-11-18T02:36:32;102080.50;;;0.46;60.66
51715;BME280;39115;59.332;18.034;2023-11-18T02:38:58;102085.75;;;0.46;60.49
51715;BME280;39115;59.332;18.034;2023-11-18T02:41:21;102086.63;;;0.46;61.18
51715;BME280;39115;59.332;18.034;2023-11-18T02:43:42;102087.47;;;0.47;60.82
51715;BME280;39115;59.332;18.034;2023-11-18T02:46:06;102081.38;;;0.46;61.00
51715;BME280;39115;59.332;18.034;2023-11-18T02:48:27;102083.06;;;0.47;60.62
51715;BME280;39115;59.332;18.034;2023-11-18T02:50:48;102079.59;;;0.47;60.78
51715;BME280;39115;59.332;18.034;2023-11-18T02:53:09;102078.75;;;0.46;60.90
51715;BME280;39115;59.332;18.034;2023-11-18T02:55:29;102083.06;;;0.47;60.83
51715;BME280;39115;59.332;18.034;2023-11-18T02:57:50;102083.06;;;0.47;61.07
51715;BME280;39115;59.332;18.034;2023-11-18T03:00:12;102078.72;;;0.48;60.85
51715;BME280;39115;59.332;18.034;2023-11-18T03:02:42;102079.56;;;0.49;60.76
51715;BME280;39115;59.332;18.034;2023-11-18T03:05:03;102083.06;;;0.47;61.00
51715;BME280;39115;59.332;18.034;2023-11-18T03:07:24;102089.19;;;0.48;60.83
51715;BME280;39115;59.332;18.034;2023-11-18T03:09:44;102078.72;;;0.48;60.82
51715;BME280;39115;59.332;18.034;2023-11-18T03:12:07;102082.19;;;0.49;61.08
51715;BME280;39115;59.332;18.034;2023-11-18T03:14:28;102079.56;;;0.49;60.76
51715;BME280;39115;59.332;18.034;2023-11-18T03:16:48;102073.47;;;0.48;60.68
51715;BME280;39115;59.332;18.034;2023-11-18T03:19:09;102074.31;;;0.49;60.87
51715;BME280;39115;59.332;18.034;2023-11-18T03:21:29;102074.31;;;0.49;60.69
51715;BME280;39115;59.332;18.034;2023-11-18T03:23:50;102075.19;;;0.49;60.60
51715;BME280;39115;59.332;18.034;2023-11-18T03:26:10;102079.53;;;0.50;60.61
51715;BME280;39115;59.332;18.034;2023-11-18T03:28:31;102079.56;;;0.49;61.03
51715;BME280;39115;59.332;18.034;2023-11-18T03:30:51;102080.44;;;0.49;60.98
51715;BME280;39115;59.332;18.034;2023-11-18T03:33:11;102085.69;;;0.49;61.15
51715;BME280;39115;59.332;18.034;2023-11-18T03:35:32;102087.41;;;0.50;61.03
51715;BME280;39115;59.332;18.034;2023-11-18T03:37:52;102083.06;;;0.49;61.12
51715;BME280;39115;59.332;18.034;2023-11-18T03:40:14;102093.53;;;0.49;60.90
51715;BME280;39115;59.332;18.034;2023-11-18T03:42:35;102091.78;;;0.50;60.94
51715;BME280;39115;59.332;18.034;2023-11-18T03:44:55;102084.78;;;0.50;60.80
51715;BME280;39115;59.332;18.034;2023-11-18T03:47:16;102079.53;;;0.50;60.63
51715;BME280;39115;59.332;18.034;2023-11-18T03:49:36;102081.28;;;0.50;61.09
51715;BME280;39115;59.332;18.034;2023-11-18T03:51:57;102084.78;;;0.50;60.99
51715;BME280;39115;59.332;18.034;2023-11-18T03:54:18;102082.16;;;0.50;60.81
51715;BME280;39115;59.332;18.034;2023-11-18T03:56:39;102080.41;;;0.51;60.72
51715;BME280;39115;59.332;18.034;2023-11-18T03:59:00;102083.00;;;0.51;60.67
51715;BME280;39115;59.332;18.034;2023-11-18T04:01:22;102078.66;;;0.50;60.62
51715;BME280;39115;59.332;18.034;2023-11-18T04:03:42;102076.00;;;0.51;61.10
51715;BME280;39115;59.332;18.034;2023-11-18T04:06:03;102082.13;;;0.52;61.04
51715;BME280;39115;59.332;18.034;2023-11-18T04:08:23;102092.59;;;0.52;61.12
51715;BME280;39115;59.332;18.034;2023-11-18T04:10:45;102088.22;;;0.52;60.60
51715;BME280;39115;59.332;18.034;2023-11-18T04:13:06;102080.41;;;0.51;60.69
51715;BME280;39115;59.332;18.034;2023-11-18T04:15:26;102082.16;;;0.50;60.78
51715;BME280;39115;59.332;18.034;2023-11-18T04:17:47;102074.25;;;0.52;60.68
51715;BME280;39115;59.332;18.034;2023-11-18T04:20:09;102076.94;;;0.50;60.66
51715;BME280;39115;59.332;18.034;2023-11-18T04:22:31;102074.25;;;0.52;61.17
51715;BME280;39115;59.332;18.034;2023-11-18T04:24:51;102068.13;;;0.51;60.55
51715;BME280;39115;59.332;18.034;2023-11-18T04:27:12;102076.88;;;0.52;61.05
51715;BME280;39115;59.332;18.034;2023-11-18T04:29:32;102075.09;;;0.52;60.92
51715;BME280;39115;59.332;18.034;2023-11-18T04:31:54;102070.75;;;0.53;60.96
51715;BME280;39115;59.332;18.034;2023-11-18T04:34:14;102075.09;;;0.52;60.97
51715;BME280;39115;59.332;18.034;2023-11-18T04:36:36;102072.47;;;0.52;61.14
51715;BME280;39115;59.332;18.034;2023-11-18T04:38:57;102076.84;;;0.53;60.94
51715;BME280;39115;59.332;18.034;2023-11-18T04:41:18;102071.59;;;0.53;61.21
51715;BME280;39115;59.332;18.034;2023-11-18T04:43:38;102075.97;;;0.53;60.86
51715;BME280;39115;59.332;18.034;2023-11-18T04:46:00;102071.59;;;0.53;60.93
51715;BME280;39115;59.332;18.034;2023-11-18T04:48:21;102063.72;;;0.53;60.87
51715;BME280;39115;59.332;18.034;2023-11-18T04:50:42;102061.09;;;0.53;60.90
51715;BME280;39115;59.332;18.034;2023-11-18T04:53:03;102064.59;;;0.54;61.07
51715;BME280;39115;59.332;18.034;2023-11-18T04:55:24;102062.88;;;0.53;61.26
51715;BME280;39115;59.332;18.034;2023-11-18T04:57:46;102057.59;;;0.54;60.66
51715;BME280;39115;59.332;18.034;2023-11-18T05:00:07;102052.41;;;0.53;60.83
51715;BME280;39115;59.332;18.034;2023-11-18T05:02:31;102060.22;;;0.54;60.70
51715;BME280;39115;59.332;18.034;2023-11-18T05:04:53;102054.97;;;0.54;61.17
51715;BME280;39115;59.332;18.034;2023-11-18T05:07:13;102055.81;;;0.55;61.15
51715;BME280;39115;59.332;18.034;2023-11-18T05:09:33;102053.19;;;0.55;60.66
51715;BME280;39115;59.332;18.034;2023-11-18T05:11:55;102047.97;;;0.55;60.56
51715;BME280;39115;59.332;18.034;2023-11-18T05:14:15;102046.22;;;0.55;60.64
51715;BME280;39115;59.332;18.034;2023-11-18T05:16:37;102040.97;;;0.55;60.76
51715;BME280;39115;59.332;18.034;2023-11-18T05:18:59;102048.78;;;0.57;61.22
51715;BME280;39115;59.332;18.034;2023-11-18T05:21:19;102047.94;;;0.56;60.71
51715;BME280;39115;59.332;18.034;2023-11-18T05:23:40;102046.22;;;0.55;61.08
51715;BME280;39115;59.332;18.034;2023-11-18T05:26:01;102048.78;;;0.57;61.02
51715;BME280;39115;59.332;18.034;2023-11-18T05:28:25;102045.31;;;0.56;60.73
51715;BME280;39115;59.332;18.034;2023-11-18T05:30:45;102057.53;;;0.57;60.83
51715;BME280;39115;59.332;18.034;2023-11-18T05:33:06;102057.53;;;0.57;60.80
51715;BME280;39115;59.332;18.034;2023-11-18T05:35:27;102057.53;;;0.57;60.58
51715;BME280;39115;59.332;18.034;2023-11-18T05:37:48;102057.53;;;0.57;60.59
51715;BME280;39115;59.332;18.034;2023-11-18T05:40:09;102054.91;;;0.57;60.81
51715;BME280;39115;59.332;18.034;2023-11-18T05:42:35;102059.22;;;0.58;60.88
51715;BME280;39115;59.332;18.034;2023-11-18T05:45:02;102059.22;;;0.58;61.04
51715;BME280;39115;59.332;18.034;2023-11-18T05:47:22;102058.38;;;0.58;60.88
51715;BME280;39115;59.332;18.034;2023-11-18T05:49:43;102059.22;;;0.58;60.88
51715;BME280;39115;59.332;18.034;2023-11-18T05:52:04;102060.09;;;0.59;60.84
51715;BME280;39115;59.332;18.034;2023-11-18T05:54:24;102053.97;;;0.58;61.07
51715;BME280;39115;59.332;18.034;2023-11-18T05:56:45;102059.22;;;0.58;60.70
51715;BME280;39115;59.332;18.034;2023-11-18T05:59:06;102053.09;;;0.59;60.90
51715;BME280;39115;59.332;18.034;2023-11-18T06:01:29;102056.59;;;0.60;60.60
51715;BME280;39115;59.332;18.034;2023-11-18T06:03:50;102059.22;;;0.60;60.70
51715;BME280;39115;59.332;18.034;2023-11-18T06:06:11;102067.06;;;0.60;60.90
51715;BME280;39115;59.332;18.034;2023-11-18T06:08:42;102068.81;;;0.59;60.59
51715;BME280;39115;59.332;18.034;2023-11-18T06:11:03;102074.88;;;0.61;61.07
51715;BME280;39115;59.332;18.034;2023-11-18T06:13:32;102078.41;;;0.60;61.12
51715;BME280;39115;59.332;18.034;2023-11-18T06:15:54;102083.63;;;0.60;60.86
51715;BME280;39115;59.332;18.034;2023-11-18T06:18:15;102087.16;;;0.61;61.10
51715;BME280;39115;59.332;18.034;2023-11-18T06:20:36;102090.63;;;0.61;60.97
51715;BME280;39115;59.332;18.034;2023-11-18T06:22:58;102088.88;;;0.62;60.87
51715;BME280;39115;59.332;18.034;2023-11-18T06:25:19;102085.38;;;0.61;60.63
51715;BME280;39115;59.332;18.034;2023-11-18T06:27:39;102090.63;;;0.61;60.71
51715;BME280;39115;59.332;18.034;2023-11-18T06:29:59;102087.09;;;0.62;60.84
51715;BME280;39115;59.332;18.034;2023-11-18T06:32:20;102092.34;;;0.62;60.95
51715;BME280;39115;59.332;18.034;2023-11-18T06:34:41;102096.72;;;0.62;60.68
51715;BME280;39115;59.332;18.034;2023-11-18T06:37:01;102097.56;;;0.62;61.08
51715;BME280;39115;59.332;18.034;2023-11-18T06:39:22;102100.19;;;0.62;61.09
51715;BME280;39115;59.332;18.034;2023-11-18T06:41:49;102097.56;;;0.62;60.74
51715;BME280;39115;59.332;18.034;2023-11-18T06:44:10;102098.44;;;0.63;60.84
51715;BME280;39115;59.332;18.034;2023-11-18T06:46:33;102102.78;;;0.64;60.79
51715;BME280;39115;59.332;18.034;2023-11-18T06:48:54;102102.78;;;0.64;60.64
51715;BME280;39115;59.332;18.034;2023-11-18T06:51:15;102099.31;;;0.63;60.82
51715;BME280;39115;59.332;18.034;2023-11-18T06:53:36;102099.25;;;0.65;61.29
51715;BME280;39115;59.332;18.034;2023-11-18T06:55:57;102097.53;;;0.64;61.29
51715;BME280;39115;59.332;18.034;2023-11-18T06:58:17;102099.31;;;0.63;61.01
51715;BME280;39115;59.332;18.034;2023-11-18T07:00:38;102099.25;;;0.65;61.21
51715;BME280;39115;59.332;18.034;2023-11-18T07:02:59;102101.88;;;0.65;61.13
51715;BME280;39115;59.332;18.034;2023-11-18T07:05:21;102106.22;;;0.66;60.85
51715;BME280;39115;59.332;18.034;2023-11-18T07:07:44;102108.00;;;0.66;60.99
51715;BME280;39115;59.332;18.034;2023-11-18T07:10:07;102103.66;;;0.65;60.89
51715;BME280;39115;59.332;18.034;2023-11-18T07:12:27;102106.28;;;0.65;60.75
51715;BME280;39115;59.332;18.034;2023-11-18T07:14:48;102109.69;;;0.67;60.79
51715;BME280;39115;59.332;18.034;2023-11-18T07:17:09;102108.00;;;0.66;60.87
51715;BME280;39115;59.332;18.034;2023-11-18T07:19:29;102106.22;;;0.66;61.25
51715;BME280;39115;59.332;18.034;2023-11-18T07:21:50;102113.25;;;0.66;60.99
51715;BME280;39115;59.332;18.034;2023-11-18T07:24:10;102108.00;;;0.66;60.81
51715;BME280;39115;59.332;18.034;2023-11-18T07:26:31;102106.22;;;0.66;60.85
51715;BME280;39115;59.332;18.034;2023-11-18T07:28:51;102104.44;;;0.67;60.71
51715;BME280;39115;59.332;18.034;2023-11-18T07:31:12;102109.69;;;0.67;60.90
51715;BME280;39115;59.332;18.034;2023-11-18T07:33:32;102109.69;;;0.67;60.66
51715;BME280;39115;59.332;18.034;2023-11-18T07:35:53;102107.06;;;0.67;61.00
51715;BME280;39115;59.332;18.034;2023-11-18T07:38:14;102114.94;;;0.67;60.84
51715;BME280;39115;59.332;18.034;2023-11-18T07:40:35;102114.09;;;0.66;60.68
51715;BME280;39115;59.332;18.034;2023-11-18T07:42:55;102109.69;;;0.67;60.87
51715;BME280;39115;59.332;18.034;2023-11-18T07:45:16;102111.41;;;0.68;60.85
51715;BME280;39115;59.332;18.034;2023-11-18T07:47:37;102107.97;;;0.67;61.06
51715;BME280;39115;59.332;18.034;2023-11-18T07:49:59;102111.41;;;0.68;60.83
51715;BME280;39115;59.332;18.034;2023-11-18T07:52:25;102110.56;;;0.67;61.12
51715;BME280;39115;59.332;18.034;2023-11-18T07:54:47;102108.81;;;0.68;60.74
51715;BME280;39115;59.332;18.034;2023-11-18T07:57:08;102104.44;;;0.67;60.39
51715;BME280;39115;59.332;18.034;2023-11-18T07:59:30;102106.22;;;0.66;60.62
51715;BME280;39115;59.332;18.034;2023-11-18T08:01:52;102110.56;;;0.67;60.99
51715;BME280;39115;59.332;18.034;2023-11-18T08:04:14;102107.06;;;0.67;60.91
51715;BME280;39115;59.332;18.034;2023-11-18T08:06:34;102106.19;;;0.68;60.90
51715;BME280;39115;59.332;18.034;2023-11-18T08:08:54;102099.22;;;0.67;60.59
51715;BME280;39115;59.332;18.034;2023-11-18T08:11:17;102104.44;;;0.67;61.10
51715;BME280;39115;59.332;18.034;2023-11-18T08:13:38;102096.59;;;0.67;61.12
51715;BME280;39115;59.332;18.034;2023-11-18T08:15:58;102100.09;;;0.67;60.55
51715;BME280;39115;59.332;18.034;2023-11-18T08:18:19;102093.06;;;0.68;60.93
51715;BME280;39115;59.332;18.034;2023-11-18T08:20:43;102098.31;;;0.68;60.69
51715;BME280;39115;59.332;18.034;2023-11-18T08:23:04;102106.19;;;0.68;61.22
51715;BME280;39115;59.332;18.034;2023-11-18T08:25:27;102103.56;;;0.68;61.23
51715;BME280;39115;59.332;18.034;2023-11-18T08:27:48;102099.19;;;0.68;60.88
51715;BME280;39115;59.332;18.034;2023-11-18T08:30:09;102101.84;;;0.67;60.64
51715;BME280;39115;59.332;18.034;2023-11-18T08:32:31;102105.34;;;0.67;60.77
51715;BME280;39115;59.332;18.034;2023-11-18T08:34:52;102113.16;;;0.69;60.94
51715;BME280;39115;59.332;18.034;2023-11-18T08:37:13;102108.81;;;0.68;61.00
51715;BME280;39115;59.332;18.034;2023-11-18T08:39:34;102113.19;;;0.67;60.86
51715;BME280;39115;59.332;18.034;2023-11-18T08:41:54;102111.41;;;0.69;60.96
51715;BME280;39115;59.332;18.034;2023-11-18T08:44:15;102113.19;;;0.67;61.07
51715;BME280;39115;59.332;18.034;2023-11-18T08:46:35;102114.91;;;0.68;60.71
51715;BME280;39115;59.332;18.034;2023-11-18T08:48:56;102114.91;;;0.68;60.91
51715;BME280;39115;59.332;18.034;2023-11-18T08:51:16;102124.50;;;0.69;60.77
51715;BME280;39115;59.332;18.034;2023-11-18T08:53:37;102120.16;;;0.68;61.03
51715;BME280;39115;59.332;18.034;2023-11-18T08:56:02;102120.16;;;0.68;60.87
51715;BME280;39115;59.332;18.034;2023-11-18T08:58:26;102128.88;;;0.69;60.93
51715;BME280;39115;59.332;18.034;2023-11-18T09:00:55;102119.28;;;0.68;60.76
51715;BME280;39115;59.332;18.034;2023-11-18T09:03:21;102125.41;;;0.68;60.87
51715;BME280;39115;59.332;18.034;2023-11-18T09:05:46;102134.13;;;0.69;60.67
51715;BME280;39115;59.332;18.034;2023-11-18T09:08:18;102128.88;;;0.69;60.82
51715;BME280;39115;59.332;18.034;2023-11-18T09:10:39;102128.88;;;0.69;61.12
51715;BME280;39115;59.332;18.034;2023-11-18T09:13:01;102128.03;;;0.68;60.79
51715;BME280;39115;59.332;18.034;2023-11-18T09:15:24;102126.25;;;0.69;60.63
51715;BME280;39115;59.332;18.034;2023-11-18T09:17:44;102126.31;;;0.67;61.04
51715;BME280;39115;59.332;18.034;2023-11-18T09:20:05;102126.25;;;0.69;60.95
51715;BME280;39115;59.332;18.034;2023-11-18T09:22:26;102131.50;;;0.69;60.89
51715;BME280;39115;59.332;18.034;2023-11-18T09:24:49;102127.13;;;0.69;60.90
51715;BME280;39115;59.332;18.034;2023-11-18T09:27:10;102121.00;;;0.69;60.67
51715;BME280;39115;59.332;18.034;2023-11-18T09:29:32;102129.78;;;0.68;61.07
51715;BME280;39115;59.332;18.034;2023-11-18T09:31:54;102126.25;;;0.69;60.59
51715;BME280;39115;59.332;18.034;2023-11-18T09:34:15;102121.91;;;0.68;60.89
51715;BME280;39115;59.332;18.034;2023-11-18T09:36:37;102127.97;;;0.70;61.06
51715;BME280;39115;59.332;18.034;2023-11-18T09:38:57;102133.22;;;0.70;61.13
51715;BME280;39115;59.332;18.034;2023-11-18T09:41:18;102126.22;;;0.70;60.71
51715;BME280;39115;59.332;18.034;2023-11-18T09:43:40;102129.72;;;0.71;60.90
51715;BME280;39115;59.332;18.034;2023-11-18T09:46:07;102133.22;;;0.70;60.70
51715;BME280;39115;59.332;18.034;2023-11-18T09:48:32;102135.00;;;0.69;60.75
51715;BME280;39115;59.332;18.034;2023-11-18T09:51:02;102142.88;;;0.69;60.87
51715;BME280;39115;59.332;18.034;2023-11-18T09:53:24;102143.72;;;0.70;61.15
51715;BME280;39115;59.332;18.034;2023-11-18T09:56:00;102131.44;;;0.70;60.92
51715;BME280;39115;59.332;18.034;2023-11-18T09:58:23;102131.44;;;0.70;60.58
51715;BME280;39115;59.332;18.034;2023-11-18T10:00:47;102135.84;;;0.70;61.16
51715;BME280;39115;59.332;18.034;2023-11-18T10:03:12;102140.25;;;0.69;60.88
51715;BME280;39115;59.332;18.034;2023-11-18T10:05:36;102135.84;;;0.70;60.87
51715;BME280;39115;59.332;18.034;2023-11-18T10:07:59;102140.25;;;0.69;61.00
51715;BME280;39115;59.332;18.034;2023-11-18T10:10:20;102132.38;;;0.69;61.01
51715;BME280;39115;59.332;18.034;2023-11-18T10:12:52;102134.13;;;0.69;60.63
51715;BME280;39115;59.332;18.034;2023-11-18T10:15:14;102133.22;;;0.70;60.66
51715;BME280;39115;59.332;18.034;2023-11-18T10:17:35;102122.75;;;0.70;60.68
51715;BME280;39115;59.332;18.034;2023-11-18T10:19:58;102131.44;;;0.70;60.81
51715;BME280;39115;59.332;18.034;2023-11-18T10:22:32;102131.44;;;0.70;60.85
51715;BME280;39115;59.332;18.034;2023-11-18T10:24:54;102129.75;;;0.69;61.21
51715;BME280;39115;59.332;18.034;2023-11-18T10:27:17;102136.69;;;0.70;60.88
51715;BME280;39115;59.332;18.034;2023-11-18T10:29:39;102136.69;;;0.70;60.83
51715;BME280;39115;59.332;18.034;2023-11-18T10:32:06;102131.44;;;0.70;60.81
51715;BME280;39115;59.332;18.034;2023-11-18T10:34:36;102121.91;;;0.69;60.97
51715;BME280;39115;59.332;18.034;2023-11-18T10:37:00;102123.59;;;0.70;60.71
51715;BME280;39115;59.332;18.034;2023-11-18T10:39:29;102125.38;;;0.70;60.80
51715;BME280;39115;59.332;18.034;2023-11-18T10:41:51;102120.13;;;0.70;61.03
51715;BME280;39115;59.332;18.034;2023-11-18T10:44:12;102118.41;;;0.69;60.92
51715;BME280;39115;59.332;18.034;2023-11-18T10:46:35;102127.13;;;0.69;60.82
51715;BME280;39115;59.332;18.034;2023-11-18T10:48:56;102122.75;;;0.70;60.95
51715;BME280;39115;59.332;18.034;2023-11-18T10:51:19;102130.56;;;0.71;61.10
51715;BME280;39115;59.332;18.034;2023-11-18T10:53:41;102119.28;;;0.69;60.84
51715;BME280;39115;59.332;18.034;2023-11-18T10:56:17;102118.41;;;0.69;61.12
51715;BME280;39115;59.332;18.034;2023-11-18T10:58:39;102122.75;;;0.70;61.23
51715;BME280;39115;59.332;18.034;2023-11-18T11:01:01;102127.13;;;0.69;61.12
51715;BME280;39115;59.332;18.034;2023-11-18T11:03:22;102125.38;;;0.70;60.92
51715;BME280;39115;59.332;18.034;2023-11-18T11:05:44;102122.75;;;0.70;61.13
51715;BME280;39115;59.332;18.034;2023-11-18T11:08:06;102127.97;;;0.70;61.12
51715;BME280;39115;59.332;18.034;2023-11-18T11:10:28;102124.50;;;0.69;60.86
51715;BME280;39115;59.332;18.034;2023-11-18T11:12:50;102119.28;;;0.69;60.92
51715;BME280;39115;59.332;18.034;2023-11-18T11:15:18;102117.53;;;0.68;60.77
51715;BME280;39115;59.332;18.034;2023-11-18T11:17:44;102116.66;;;0.69;61.03
51715;BME280;39115;59.332;18.034;2023-11-18T11:20:07;102121.00;;;0.69;61.17
51715;BME280;39115;59.332;18.034;2023-11-18T11:22:38;102129.75;;;0.69;60.95
51715;BME280;39115;59.332;18.034;2023-11-18T11:25:23;102123.63;;;0.69;60.86
51715;BME280;39115;59.332;18.034;2023-11-18T11:28:16;102125.38;;;0.70;61.07
51715;BME280;39115;59.332;18.034;2023-11-18T11:33:35;102124.50;;;0.69;60.75
51715;BME280;39115;59.332;18.034;2023-11-18T11:36:02;102127.16;;;0.68;61.20
51715;BME280;39115;59.332;18.034;2023-11-18T11:38:25;102123.63;;;0.69;60.78
51715;BME280;39115;59.332;18.034;2023-11-18T11:40:48;102125.41;;;0.68;60.79
51715;BME280;39115;59.332;18.034;2023-11-18T11:43:10;102132.38;;;0.69;61.29
51715;BME280;39115;59.332;18.034;2023-11-18T11:45:31;102129.78;;;0.68;60.73
51715;BME280;39115;59.332;18.034;2023-11-18T11:47:52;102132.38;;;0.68;61.12
51715;BME280;39115;59.332;18.034;2023-11-18T11:50:17;102130.66;;;0.68;61.04
51715;BME280;39115;59.332;18.034;2023-11-18T11:52:46;102135.91;;;0.68;60.92
51715;BME280;39115;59.332;18.034;2023-11-18T11:55:19;102136.75;;;0.69;61.01
51715;BME280;39115;59.332;18.034;2023-11-18T11:57:50;102140.25;;;0.68;60.64
51715;BME280;39115;59.332;18.034;2023-11-18T12:00:13;102139.41;;;0.67;61.00
51715;BME280;39115;59.332;18.034;2023-11-18T12:02:37;102140.31;;;0.66;60.72
51715;BME280;39115;59.332;18.034;2023-11-18T12:05:01;102136.78;;;0.67;60.64
51715;BME280;39115;59.332;18.034;2023-11-18T12:07:27;102131.53;;;0.67;61.00
51715;BME280;39115;59.332;18.034;2023-11-18T12:09:48;102133.28;;;0.68;60.79
51715;BME280;39115;59.332;18.034;2023-11-18T12:12:17;102121.94;;;0.66;60.60
51715;BME280;39115;59.332;18.034;2023-11-18T12:14:58;102117.53;;;0.68;61.12
51715;BME280;39115;59.332;18.034;2023-11-18T12:20:37;102131.53;;;0.67;60.86
51715;BME280;39115;59.332;18.034;2023-11-18T12:23:03;102129.81;;;0.66;60.52
51715;BME280;39115;59.332;18.034;2023-11-18T12:27:47;102121.09;;;0.66;61.07
51715;BME280;39115;59.332;18.034;2023-11-18T12:33:02;102125.44;;;0.67;61.15
51715;BME280;39115;59.332;18.034;2023-11-18T12:35:30;102120.22;;;0.65;60.92
51715;BME280;39115;59.332;18.034;2023-11-18T12:40:53;102115.88;;;0.66;60.70